createdAt,value
2023-10-29T00:04:35.687Z,8
2023-10-29T00:09:35.043Z,8
2023-10-29T00:14:34.452Z,9.2
2023-10-29T00:19:33.737Z,7.3
2023-10-29T00:24:33.139Z,8.3
2023-10-29T00:29:32.563Z,8
2023-10-29T00:34:31.868Z,7.6
2023-10-29T00:39:31.303Z,7.8
2023-10-29T00:44:30.680Z,7.1
2023-10-29T00:49:30.065Z,7.5
2023-10-29T00:54:29.443Z,6.8
2023-10-29T00:59:28.835Z,7.5
2023-10-29T01:04:28.179Z,6.9
2023-10-29T01:09:27.532Z,7.1
2023-10-29T01:14:26.940Z,4.7
2023-10-29T01:19:26.341Z,4.1
2023-10-29T01:24:25.707Z,3.9
2023-10-29T01:29:25.092Z,3.4
2023-10-29T01:34:24.488Z,4.1
2023-10-29T01:39:23.949Z,4.7
2023-10-29T01:44:23.359Z,3.9
2023-10-29T01:49:22.755Z,4
2023-10-29T01:54:22.200Z,3.5
2023-10-29T01:59:21.594Z,3.3
2023-10-29T02:04:21.090Z,4.1
2023-10-29T02:09:20.488Z,4.7
2023-10-29T02:14:19.951Z,4.5
2023-10-29T02:19:19.319Z,4.3
2023-10-29T02:24:18.847Z,3.5
2023-10-29T02:29:18.247Z,4.3
2023-10-29T02:34:17.653Z,4.9
2023-10-29T02:39:17.085Z,5.6
2023-10-29T02:44:16.515Z,4.8
2023-10-29T02:49:15.924Z,5
2023-10-29T02:54:15.379Z,4.8
2023-10-29T02:59:14.781Z,4.8
2023-10-29T03:04:14.406Z,4.7
2023-10-29T03:09:13.650Z,5.2
2023-10-29T03:14:13.055Z,6
2023-10-29T03:19:12.495Z,5.9
2023-10-29T03:24:11.931Z,4.4
2023-10-29T03:29:11.374Z,5.8
2023-10-29T03:34:10.791Z,4.5
2023-10-29T03:39:10.210Z,4.5
2023-10-29T03:44:09.651Z,4.8
2023-10-29T03:49:09.051Z,7.5
2023-10-29T03:54:08.400Z,6.4
2023-10-29T03:59:07.794Z,6.2
2023-10-29T04:00:41.950Z,6.2
2023-10-29T04:01:21.916Z,6.2
2023-10-29T04:02:02.034Z,6.2
2023-10-29T04:04:07.277Z,7.5
2023-10-29T04:09:06.610Z,6.4
2023-10-29T04:14:05.943Z,5.7
2023-10-29T04:19:05.363Z,5.2
2023-10-29T04:24:04.772Z,4.5
2023-10-29T04:29:04.126Z,4.2
2023-10-29T04:34:03.484Z,5
2023-10-29T04:39:02.957Z,4.3
2023-10-29T04:44:02.384Z,4.6
2023-10-29T04:49:01.709Z,4.5
2023-10-29T04:54:01.123Z,3.9
2023-10-29T04:59:00.422Z,4
2023-10-29T05:03:59.933Z,3.8
2023-10-29T05:08:59.257Z,3.5
2023-10-29T05:13:58.548Z,5.3
2023-10-29T05:18:57.877Z,5.1
2023-10-29T05:23:57.276Z,4.1
2023-10-29T05:28:56.611Z,3.7
2023-10-29T05:33:55.959Z,4.3
2023-10-29T05:38:55.309Z,3.6
2023-10-29T05:43:54.670Z,3.9
2023-10-29T05:48:54.024Z,3.4
2023-10-29T05:53:53.443Z,3.9
2023-10-29T05:58:52.697Z,3.4
2023-10-29T06:03:52.205Z,4.9
2023-10-29T06:08:51.427Z,4.7
2023-10-29T06:13:50.794Z,4
2023-10-29T06:18:50.121Z,2.6
2023-10-29T06:23:49.555Z,4.1
2023-10-29T06:28:48.883Z,3.3
2023-10-29T06:33:48.273Z,3.4
2023-10-29T06:38:47.675Z,3.5
2023-10-29T06:43:46.962Z,3.9
2023-10-29T06:48:46.453Z,7.3
2023-10-29T06:53:45.829Z,3.4
2023-10-29T06:58:45.236Z,4
2023-10-29T07:03:44.790Z,3.6
2023-10-29T07:08:44.169Z,4
2023-10-29T07:13:43.499Z,4.9
2023-10-29T07:18:43.051Z,3.3
2023-10-29T07:23:42.488Z,3.2
2023-10-29T07:28:41.926Z,3.8
2023-10-29T07:33:41.578Z,6.7
2023-10-29T07:38:40.958Z,4.2
2023-10-29T07:43:40.391Z,3.5
2023-10-29T07:48:39.888Z,4.3
2023-10-29T07:53:39.435Z,3.3
2023-10-29T07:58:38.943Z,2.5
2023-10-29T08:03:38.534Z,2.9
2023-10-29T08:08:37.964Z,2.6
2023-10-29T08:13:37.495Z,2.6
2023-10-29T08:18:37.156Z,3.4
2023-10-29T08:23:36.604Z,2.1
2023-10-29T08:28:36.040Z,3.1
2023-10-29T08:33:35.661Z,3
2023-10-29T08:38:35.049Z,2.1
2023-10-29T08:43:34.552Z,2
2023-10-29T08:48:35.186Z,2.4
2023-10-29T08:53:33.630Z,2
2023-10-29T08:58:33.169Z,1.8
2023-10-29T09:03:32.783Z,2.8
2023-10-29T09:08:32.262Z,2
2023-10-29T09:13:31.871Z,2.4
2023-10-29T09:18:31.449Z,2.1
2023-10-29T09:23:30.961Z,1.7
2023-10-29T09:28:30.608Z,2.3
2023-10-29T09:33:30.300Z,1.7
2023-10-29T09:38:29.698Z,1.7
2023-10-29T09:43:29.295Z,1.6
2023-10-29T09:48:29.031Z,1.3
2023-10-29T09:53:28.534Z,1.2
2023-10-29T09:58:28.167Z,1.2
2023-10-29T10:03:27.821Z,1.2
2023-10-29T10:08:27.353Z,1.4
2023-10-29T10:13:27.051Z,1.1
2023-10-29T10:18:26.797Z,2
2023-10-29T10:23:26.305Z,1.2
2023-10-29T10:28:25.911Z,1
2023-10-29T10:33:25.640Z,1.1
2023-10-29T10:38:25.168Z,1.8
2023-10-29T10:43:24.810Z,1
2023-10-29T10:48:24.560Z,1
2023-10-29T10:53:24.196Z,2.7
2023-10-29T10:58:23.763Z,1.2
2023-10-29T11:03:32.420Z,1.2
2023-10-29T11:08:23.128Z,1.2
2023-10-29T11:13:22.790Z,1.1
2023-10-29T11:18:22.560Z,1
2023-10-29T11:23:22.215Z,1.6
2023-10-29T11:28:21.886Z,1.4
2023-10-29T11:33:21.621Z,0.9
2023-10-29T11:38:21.212Z,0.9
2023-10-29T11:43:20.889Z,0.7
2023-10-29T11:48:21.865Z,1.4
2023-10-29T11:53:20.151Z,0.9
2023-10-29T11:58:19.793Z,0.9
2023-10-29T12:03:19.640Z,0.9
2023-10-29T12:08:19.230Z,0.7
2023-10-29T12:13:18.950Z,0.7
2023-10-29T12:18:18.637Z,0.5
2023-10-29T12:23:18.337Z,0.8
2023-10-29T12:28:18.019Z,0.6
2023-10-29T12:33:17.879Z,0.5
2023-10-29T12:38:17.433Z,0.8
2023-10-29T12:43:17.132Z,0.8
2023-10-29T12:48:16.901Z,1.2
2023-10-29T12:53:16.591Z,0.8
2023-10-29T12:58:16.221Z,0.6
2023-10-29T13:03:15.967Z,0.7
2023-10-29T13:08:15.657Z,0.6
2023-10-29T13:13:15.356Z,0.7
2023-10-29T13:18:15.111Z,1.1
2023-10-29T13:23:14.810Z,1.2
2023-10-29T13:28:14.455Z,1
2023-10-29T13:33:14.263Z,0.8
2023-10-29T13:38:13.894Z,0.8
2023-10-29T13:43:13.570Z,1.1
2023-10-29T13:48:13.410Z,0.7
2023-10-29T13:53:13.003Z,0.9
2023-10-29T13:58:12.748Z,1.8
2023-10-29T14:03:12.507Z,0.9
2023-10-29T14:08:12.082Z,1.1
2023-10-29T14:13:11.812Z,0.8
2023-10-29T14:18:11.505Z,0.9
2023-10-29T14:23:11.102Z,1.5
2023-10-29T14:28:10.829Z,1
2023-10-29T14:33:10.526Z,0.9
2023-10-29T14:38:10.113Z,0.8
2023-10-29T14:43:21.723Z,1.3
2023-10-29T14:48:09.482Z,1.1
2023-10-29T14:53:09.340Z,1.4
2023-10-29T14:58:08.748Z,0.9
2023-10-29T15:03:08.581Z,1
2023-10-29T15:08:08.139Z,1.9
2023-10-29T15:13:07.729Z,1.4
2023-10-29T15:18:07.986Z,1.3
2023-10-29T15:23:06.993Z,2.3
2023-10-29T15:28:07.561Z,2
2023-10-29T15:33:06.332Z,1.3
2023-10-29T15:38:05.937Z,2.2
2023-10-29T15:43:05.532Z,1.9
2023-10-29T15:48:05.245Z,2.4
2023-10-29T15:53:04.722Z,1.7
2023-10-29T15:58:04.341Z,1.7
2023-10-29T16:03:04.072Z,2.1
2023-10-29T16:08:03.896Z,6.9
2023-10-29T16:13:03.220Z,5.8
2023-10-29T16:18:02.980Z,6.7
2023-10-29T16:23:02.478Z,6.7
2023-10-29T16:28:02.096Z,6.9
2023-10-29T16:33:01.786Z,8.9
2023-10-29T16:38:01.287Z,8
2023-10-29T16:43:00.831Z,3.9
2023-10-29T16:48:00.447Z,2.8
2023-10-29T16:52:59.877Z,2.6
2023-10-29T16:57:59.408Z,3.8
2023-10-29T17:02:59.110Z,3.1
2023-10-29T17:07:58.590Z,2.5
2023-10-29T17:12:58.527Z,3.7
2023-10-29T17:17:57.783Z,5.2
2023-10-29T17:22:57.248Z,4.1
2023-10-29T17:27:56.857Z,5
2023-10-29T17:32:56.458Z,4.4
2023-10-29T17:37:55.947Z,4.3
2023-10-29T17:42:55.440Z,3
2023-10-29T17:47:55.164Z,2.8
2023-10-29T17:52:54.608Z,2.7
2023-10-29T17:57:54.124Z,2.8
2023-10-29T18:02:53.856Z,2.8
2023-10-29T18:07:53.266Z,2.9
2023-10-29T18:12:52.773Z,3.8
2023-10-29T18:17:52.384Z,3.4
2023-10-29T18:22:51.852Z,3
2023-10-29T18:27:51.382Z,2.8
2023-10-29T18:32:50.981Z,3
2023-10-29T18:37:50.486Z,3
2023-10-29T18:42:50.021Z,3.4
2023-10-29T18:47:51.892Z,3.1
2023-10-29T18:52:49.206Z,3.3
2023-10-29T18:57:48.747Z,3.5
2023-10-29T19:02:48.378Z,3.2
2023-10-29T19:07:47.900Z,3.3
2023-10-29T19:12:47.464Z,3.6
2023-10-29T19:17:47.133Z,3.6
2023-10-29T19:22:46.606Z,3.9
2023-10-29T19:27:46.133Z,3.3
2023-10-29T19:32:45.760Z,3.9
2023-10-29T19:37:45.194Z,3.4
2023-10-29T19:42:44.826Z,3.1
2023-10-29T19:47:44.352Z,2.9
2023-10-29T19:52:43.862Z,3.5
2023-10-29T19:57:43.387Z,3.5
2023-10-29T20:02:43.019Z,3.8
2023-10-29T20:07:42.438Z,3.3
2023-10-29T20:12:41.985Z,3.4
2023-10-29T20:17:41.583Z,4.1
2023-10-29T20:22:40.988Z,4.2
2023-10-29T20:27:43.809Z,4
2023-10-29T20:32:41.159Z,4.2
2023-10-29T20:37:39.577Z,3.8
2023-10-29T20:42:39.099Z,3.9
2023-10-29T20:47:38.689Z,4
2023-10-29T20:52:38.163Z,4.9
2023-10-29T20:57:37.678Z,4.9
2023-10-29T21:02:37.236Z,4.4
2023-10-29T21:07:36.649Z,4.3
2023-10-29T21:12:36.157Z,4.1
2023-10-29T21:17:35.662Z,3.2
2023-10-29T21:22:35.160Z,4
2023-10-29T21:27:34.765Z,3.6
2023-10-29T21:32:34.203Z,4
2023-10-29T21:37:33.714Z,4.1
2023-10-29T21:42:33.253Z,3.9
2023-10-29T21:47:32.822Z,3.7
2023-10-29T21:52:32.324Z,4.4
2023-10-29T21:57:32.970Z,4.3
2023-10-29T22:02:31.406Z,4.2
2023-10-29T22:07:30.807Z,3.3
2023-10-29T22:12:30.298Z,4.7
2023-10-29T22:17:29.808Z,3.6
2023-10-29T22:22:29.313Z,3.6
2023-10-29T22:27:28.790Z,3.9
2023-10-29T22:32:28.283Z,3.3
2023-10-29T22:37:27.786Z,3.8
2023-10-29T22:42:27.318Z,3.3
2023-10-29T22:47:26.907Z,3.3
2023-10-29T22:52:26.283Z,2.5
2023-10-29T22:57:25.798Z,3
2023-10-29T23:02:25.219Z,3
2023-10-29T23:07:24.737Z,2.8
2023-10-29T23:12:24.302Z,2.8
2023-10-29T23:17:23.650Z,3.2
2023-10-29T23:22:23.177Z,3.8
2023-10-29T23:27:22.628Z,3.2
2023-10-29T23:32:22.067Z,2.7
2023-10-29T23:37:21.525Z,3.2
2023-10-29T23:42:21.062Z,3.1
2023-10-29T23:47:20.459Z,3.1
2023-10-29T23:52:20.036Z,3.1
2023-10-29T23:57:19.476Z,2.8
